Latest Weather Observations for Bairnsdale

IDV60801

Issued at 10:02 pm EST Thursday 30 June 2016 (issued every 30 minutes, with the page automatically refreshed every 10 minutes)

About weather observations | Map of weather stations | Latest weather observations for VIC | Other Formats
Station Details ID: 085279 Name: BAIRNSDALE AIRPORT Lat: -37.88 Lon: 147.57 Height: 49.4 m
Data from the previous 72 hours. | See also: Recent months at Bairnsdale
Date/Time
EST
Temp
°C
App
Temp
°C
Dew
Point
°C
Rel
Hum
%
Delta-T
°C
Wind Press
QNH
hPa
Press
MSL
hPa
Rain since
9am
mm
Dir  Spd
km/h
Gust
km/h
Spd
kts
Gust
kts
30/10:00pm 7.2 4.2 6.0 92 0.5 WNW 11 15 6 8 1008.9 1008.9 1.8
30/09:30pm 7.9 6.2 5.7 86 1.0 - 4 11 2 6 1008.5 1008.5 1.6
30/09:00pm 8.2 4.0 5.7 84 1.1 NW 17 24 9 13 1009.2 1009.2 1.4
30/08:30pm 8.6 6.1 4.8 77 1.7 NW 7 11 4 6 1008.2 1008.3 0.4
30/08:00pm 10.5 6.5 2.6 58 3.4 N 13 15 7 8 1007.9 1008.0 0.0
30/07:30pm 9.7 6.5 2.8 62 3.0 N 9 13 5 7 1007.8 1007.9 0.0
30/07:00pm 9.8 7.1 2.6 61 3.1 N 6 9 3 5 1007.8 1007.9 0.0
30/06:30pm 9.4 7.1 2.9 64 2.8 NNW 4 9 2 5 1007.6 1007.7 0.0
30/06:00pm 10.1 6.8 2.7 60 3.2 NE 9 15 5 8 1007.2 1007.3 0.0
30/05:30pm 10.4 7.1 2.7 59 3.3 NE 9 13 5 7 1006.4 1006.5 0.0
30/05:00pm 11.3 6.9 2.6 55 3.8 NW 15 22 8 12 1006.2 1006.3 0.0
30/04:30pm 11.9 5.8 2.6 53 4.0 NW 24 32 13 17 1006.3 1006.4 0.0
30/04:00pm 12.6 5.7 2.7 51 4.4 NW 28 37 15 20 1006.3 1006.4 0.0
30/03:30pm 13.1 7.6 2.1 47 4.8 NW 20 30 11 16 1006.3 1006.4 0.0
30/03:00pm 14.7 9.5 2.6 44 5.4 NW 19 28 10 15 1006.6 1006.7 0.0
30/02:30pm 13.9 8.1 2.2 45 5.1 NW 22 33 12 18 1007.0 1007.1 0.0
30/02:08pm 13.4 6.3 1.4 44 5.2 NNW 28 48 15 26 1006.6 1006.7 0.0
30/02:00pm 13.4 7.5 2.0 46 5.0 NNW 22 35 12 19 1006.7 1006.8 0.0
30/01:48pm 13.6 7.0 1.9 45 5.1 NNW 26 43 14 23 1007.0 1007.1 0.0
30/01:30pm 13.5 9.9 2.7 48 4.8 NNW 11 17 6 9 1007.9 1008.0 0.0
30/01:00pm 14.4 9.0 2.3 44 5.4 NNW 20 28 11 15 1008.6 1008.6 0.0
30/12:30pm 13.5 7.2 1.8 45 5.1 NNW 24 37 13 20 1009.5 1009.5 0.0
30/12:00pm 13.1 7.9 2.6 49 4.6 NNW 19 24 10 13 1010.2 1010.2 0.0
30/11:30am 13.2 8.9 3.3 51 4.4 N 15 24 8 13 1010.9 1010.9 0.0
30/11:00am 12.7 8.7 2.6 50 4.4 NNE 13 17 7 9 1011.8 1011.8 0.0
30/10:30am 12.0 8.1 3.5 56 3.8 NNE 13 17 7 9 1012.2 1012.2 0.0
30/10:00am 11.1 8.0 3.6 60 3.3 N 9 17 5 9 1012.5 1012.5 0.0
30/09:30am 10.3 7.6 3.6 63 2.9 NNE 7 11 4 6 1012.7 1012.7 0.0
30/09:00am 9.3 5.9 3.9 69 2.4 NNE 11 15 6 8 1012.7 1012.7 0.0
30/08:30am 6.5 2.8 2.6 76 1.6 NE 11 17 6 9 1013.0 1013.0 0.0
30/08:00am 5.8 2.1 2.1 77 1.5 NE 11 15 6 8 1013.6 1013.6 0.0
30/07:30am 5.7 1.5 1.8 76 1.6 NE 13 17 7 9 1014.0 1014.0 0.0
30/07:00am 5.0 0.9 2.0 81 1.2 NE 13 17 7 9 1014.2 1014.2 0.0
30/06:30am 4.8 1.1 2.2 83 1.0 NE 11 13 6 7 1014.5 1014.5 0.0
30/06:00am 5.0 1.3 2.2 82 1.1 NE 11 13 6 7 1014.7 1014.8 0.0
30/05:30am 6.1 2.3 2.0 75 1.7 NNE 11 13 6 7 1015.0 1015.1 0.0
30/05:00am 5.8 2.9 2.4 79 1.4 N 7 9 4 5 1015.4 1015.5 0.0
30/04:30am 4.3 2.3 2.3 87 0.8 NNW 2 7 1 4 1015.8 1015.9 0.0
30/04:00am 4.2 1.2 2.2 87 0.8 N 7 9 4 5 1016.3 1016.4 0.0
30/03:30am 3.5 0.6 1.7 88 0.7 SSW 6 7 3 4 1016.6 1016.7 0.0
30/03:00am 3.9 0.5 2.1 88 0.7 WSW 9 11 5 6 1016.8 1016.9 0.0
30/02:30am 4.8 1.9 1.7 80 1.2 N 6 9 3 5 1017.0 1017.1 0.0
30/02:00am 6.7 3.0 2.2 73 1.8 NNE 11 15 6 8 1017.1 1017.2 0.0
30/01:30am 6.9 2.8 2.4 73 1.9 NNE 13 17 7 9 1017.3 1017.4 0.0
30/01:00am 8.2 4.2 3.1 70 2.2 NNE 13 17 7 9 1017.6 1017.7 0.0
30/12:30am 7.3 2.9 2.8 73 1.9 N 15 19 8 10 1018.1 1018.2 0.0
30/12:00am 8.0 4.5 3.5 73 1.9 NNE 11 15 6 8 1018.4 1018.5 0.0
 
Date/Time
EST
Temp
°C
App
Temp
°C
Dew
Point
°C
Rel
Hum
%
Delta-T
°C
Wind Press
QNH
hPa
Press
MSL
hPa
Rain since
9am
mm
Dir  Spd
km/h
Gust
km/h
Spd
kts
Gust
kts
29/11:30pm 7.1 4.0 3.5 78 1.5 N 9 13 5 7 1019.0 1019.1 0.0
29/11:00pm 7.6 4.6 4.0 78 1.6 NNE 9 9 5 5 1019.3 1019.4 0.0
29/10:30pm 7.1 4.4 3.7 79 1.5 NNE 7 9 4 5 1019.7 1019.8 0.0
29/10:00pm 8.5 5.2 4.3 75 1.8 NNE 11 13 6 7 1020.1 1020.2 0.0
29/09:30pm 7.9 5.0 4.8 81 1.4 NE 9 11 5 6 1020.5 1020.6 0.0
29/09:00pm 8.1 5.2 4.9 80 1.4 NNE 9 11 5 6 1020.9 1021.0 0.0
29/08:30pm 8.5 6.0 4.7 77 1.7 NNE 7 9 4 5 1021.4 1021.5 0.0
29/08:00pm 9.8 7.3 5.0 72 2.2 NE 7 9 4 5 1021.7 1021.8 0.0
29/07:30pm 11.0 8.0 4.2 63 3.0 NNE 9 13 5 7 1022.1 1022.2 0.0
29/07:00pm 11.8 9.2 4.1 59 3.4 N 7 9 4 5 1022.4 1022.5 0.0
29/06:30pm 12.4 9.8 4.4 58 3.6 N 7 11 4 6 1022.5 1022.6 0.0
29/06:00pm 12.1 10.7 5.7 65 3.0 NW 2 6 1 3 1022.8 1022.9 0.0
29/05:30pm 12.9 10.8 5.8 62 3.3 NNE 6 7 3 4 1022.9 1023.0 0.0
29/05:00pm 13.1 10.8 7.3 68 2.8 ESE 9 13 5 7 1023.0 1023.1 0.0
29/04:30pm 14.7 13.2 6.8 59 3.9 NNW 4 7 2 4 1023.0 1023.1 0.0
29/04:00pm 16.0 14.0 6.4 53 4.7 NNW 6 6 3 3 1023.1 1023.2 0.0
29/03:30pm 16.3 14.6 5.9 50 5.0 WNW 4 7 2 4 1023.1 1023.2 0.0
29/03:00pm 16.8 14.6 5.4 47 5.5 W 6 9 3 5 1023.2 1023.3 0.0
29/02:30pm 16.6 14.3 5.9 49 5.2 NNW 7 11 4 6 1023.4 1023.5 0.0
29/02:00pm 16.7 14.3 5.3 47 5.4 WSW 7 9 4 5 1023.5 1023.6 0.0
29/01:30pm 16.9 13.8 5.5 47 5.5 NNW 11 17 6 9 1023.8 1023.9 0.0
29/01:00pm 17.1 14.5 6.0 48 5.4 NW 9 13 5 7 1024.3 1024.4 0.0
29/12:30pm 16.8 14.2 6.0 49 5.3 NNW 9 13 5 7 1024.8 1024.9 0.0
29/12:00pm 16.5 13.3 5.2 47 5.4 NW 11 17 6 9 1025.3 1025.4 0.0
29/11:30am 15.9 12.6 6.3 53 4.7 NW 13 17 7 9 1025.9 1026.0 0.0
29/11:00am 15.2 11.5 6.2 55 4.3 NW 15 20 8 11 1026.5 1026.6 0.0
29/10:30am 14.4 10.7 6.5 59 3.8 NW 15 20 8 11 1026.7 1026.8 0.0
29/10:00am 13.6 10.0 6.7 63 3.3 NW 15 19 8 10 1026.7 1026.8 0.0
29/09:30am 12.4 8.7 6.2 66 2.9 NW 15 19 8 10 1026.7 1026.8 0.0
29/09:00am 10.9 7.9 5.9 71 2.3 NW 11 15 6 8 1026.7 1026.8 0.0
29/08:30am 9.6 6.4 5.2 74 2.0 WNW 11 13 6 7 1026.6 1026.7 0.0
29/08:00am 7.6 3.9 4.2 79 1.5 WNW 13 17 7 9 1026.2 1026.3 0.0
29/07:30am 5.9 2.4 3.4 84 1.0 NW 11 13 6 7 1025.9 1026.0 0.0
29/07:00am 6.4 3.3 3.4 81 1.3 WNW 9 9 5 5 1025.6 1025.7 0.0
29/06:30am 7.2 4.1 3.8 79 1.5 NW 9 11 5 6 1025.3 1025.4 0.0
29/06:00am 7.3 4.2 3.7 78 1.5 NW 9 13 5 7 1025.1 1025.2 0.0
29/05:30am 8.1 4.7 4.1 76 1.7 NW 11 15 6 8 1025.0 1025.1 0.0
29/05:00am 8.3 4.5 4.1 75 1.8 NW 13 17 7 9 1024.9 1025.0 0.0
29/04:30am 9.3 6.1 4.9 74 2.0 NW 11 17 6 9 1024.8 1024.9 0.0
29/04:00am 9.6 6.0 5.0 73 2.1 NW 13 17 7 9 1024.7 1024.8 0.0
29/03:30am 8.9 5.2 4.7 75 1.9 NW 13 15 7 8 1024.9 1025.0 0.0
29/03:00am 7.6 4.2 3.8 77 1.6 NW 11 13 6 7 1025.1 1025.2 0.0
29/02:30am 7.7 3.5 3.9 77 1.6 NW 15 19 8 10 1025.0 1025.1 0.0
29/02:00am 8.0 3.9 4.2 77 1.6 NW 15 19 8 10 1025.0 1025.1 0.0
29/01:30am 8.1 4.0 4.3 77 1.7 NW 15 19 8 10 1025.1 1025.2 0.0
29/01:00am 7.6 3.4 4.0 78 1.5 WNW 15 17 8 9 1025.0 1025.1 0.0
29/12:30am 8.2 4.1 4.4 77 1.7 WNW 15 19 8 10 1025.2 1025.3 0.0
29/12:00am 7.7 4.3 4.1 78 1.6 NW 11 15 6 8 1025.2 1025.3 0.0
 
Date/Time
EST
Temp
°C
App
Temp
°C
Dew
Point
°C
Rel
Hum
%
Delta-T
°C
Wind Press
QNH
hPa
Press
MSL
hPa
Rain since
9am
mm
Dir  Spd
km/h
Gust
km/h
Spd
kts
Gust
kts
28/11:30pm 7.5 3.7 4.1 79 1.5 WNW 13 15 7 8 1025.2 1025.3 0.0
28/11:00pm 7.6 3.9 4.2 79 1.5 WNW 13 15 7 8 1025.3 1025.4 0.0
28/10:30pm 8.2 5.2 4.2 76 1.7 NW 9 11 5 6 1025.4 1025.5 0.0
28/10:00pm 7.7 4.3 4.1 78 1.6 NW 11 13 6 7 1025.4 1025.5 0.0
28/09:30pm 8.2 4.8 4.2 76 1.7 NW 11 15 6 8 1025.4 1025.5 0.0
28/09:00pm 9.7 6.8 4.7 71 2.2 NW 9 11 5 6 1025.3 1025.4 0.0
28/08:30pm 10.1 7.3 5.1 71 2.3 NNW 9 13 5 7 1025.2 1025.3 0.0
28/08:00pm 10.5 7.8 5.5 71 2.3 NW 9 11 5 6 1025.2 1025.3 0.0
28/07:30pm 10.5 8.2 5.7 72 2.2 NW 7 9 4 5 1024.8 1024.9 0.0
28/07:00pm 9.9 7.5 5.3 73 2.1 NW 7 9 4 5 1024.4 1024.5 0.0
28/06:30pm 10.5 7.7 5.1 69 2.5 WNW 9 13 5 7 1024.2 1024.3 0.0
28/06:00pm 11.6 8.0 4.8 63 3.1 W 13 19 7 10 1023.9 1024.0 0.0
28/05:30pm 12.3 8.3 5.0 61 3.4 W 15 19 8 10 1023.5 1023.6 0.0
28/05:00pm 12.8 9.4 5.7 62 3.3 WSW 13 15 7 8 1023.2 1023.3 0.0
28/04:30pm 13.2 9.2 5.1 58 3.8 W 15 19 8 10 1022.9 1023.0 0.0
28/04:00pm 15.1 11.5 5.0 51 4.7 W 13 22 7 12 1022.6 1022.7 0.0
28/03:30pm 15.6 10.8 4.6 48 5.2 W 19 24 10 13 1022.6 1022.7 0.0
28/03:00pm 15.8 10.8 4.8 48 5.2 W 20 28 11 15 1022.4 1022.5 0.0
28/02:30pm 15.8 9.6 4.5 47 5.3 W 26 35 14 19 1022.1 1022.2 0.0
28/02:00pm 15.9 10.5 4.6 47 5.3 W 22 33 12 18 1022.1 1022.2 0.0
28/01:30pm 15.9 11.0 5.2 49 5.1 W 20 30 11 16 1022.1 1022.2 0.0
28/01:00pm 15.4 11.4 4.8 49 5.0 WNW 15 20 8 11 1022.2 1022.3 0.0
28/12:30pm 15.3 10.8 4.1 47 5.2 NW 17 22 9 12 1022.3 1022.4 0.0
28/12:00pm 14.5 9.3 3.6 48 4.9 NW 20 26 11 14 1022.5 1022.6 0.0
28/11:30am 14.1 9.0 4.1 51 4.6 NW 20 28 11 15 1022.7 1022.8 0.0
28/11:00am 13.0 8.5 4.2 55 4.0 NW 17 22 9 12 1022.8 1022.9 0.0
28/10:30am 12.0 7.5 4.0 58 3.6 NW 17 22 9 12 1023.1 1023.2 0.0
28/10:00am 10.9 6.4 4.1 63 3.0 NW 17 22 9 12 1023.0 1023.1 0.0
28/09:30am 9.3 5.2 4.1 70 2.3 NW 15 19 8 10 1022.9 1023.0 0.0
28/09:00am 7.7 3.0 3.4 74 1.8 NW 17 20 9 11 1022.7 1022.8 0.0
28/08:30am 6.2 1.5 3.0 80 1.3 NW 17 20 9 11 1022.6 1022.7 0.0
28/08:00am 4.9 0.0 2.1 82 1.1 WNW 17 20 9 11 1022.4 1022.5 0.0
28/07:30am 4.9 0.4 1.9 81 1.2 NW 15 20 8 11 1022.2 1022.3 0.0
28/07:00am 4.5 -0.4 2.0 84 1.0 WNW 17 19 9 10 1021.8 1021.9 0.0
28/06:30am 4.3 -0.6 2.0 85 0.9 WNW 17 20 9 11 1021.5 1021.6 0.0
28/06:00am 4.1 -0.4 2.0 86 0.8 WNW 15 17 8 9 1021.1 1021.2 0.0
28/05:30am 4.1 -0.4 2.0 86 0.8 WNW 15 19 8 10 1020.6 1020.7 0.0
28/05:00am 4.3 -0.2 2.2 86 0.8 WNW 15 19 8 10 1020.3 1020.4 0.0
28/04:30am 4.2 -0.3 2.1 86 0.8 NW 15 19 8 10 1020.3 1020.4 0.0
28/04:00am 4.0 -0.5 2.0 87 0.8 WNW 15 17 8 9 1020.3 1020.4 0.0
28/03:30am 4.9 0.1 2.8 86 0.9 NW 17 20 9 11 1020.4 1020.5 0.0
28/03:00am 4.2 -0.3 2.2 87 0.8 NW 15 19 8 10 1020.4 1020.5 0.0
28/02:30am 4.4 -0.5 2.3 86 0.8 WNW 17 19 9 10 1020.5 1020.6 0.0
28/02:00am 4.7 0.2 2.4 85 0.9 NW 15 19 8 10 1020.4 1020.5 0.0
28/01:30am 4.8 0.4 2.8 87 0.8 NW 15 19 8 10 1020.2 1020.3 0.0
28/01:00am 4.4 0.1 3.4 93 0.4 NW 15 17 8 9 1020.1 1020.2 0.0
28/12:30am 4.6 0.4 3.9 95 0.3 NW 15 19 8 10 1020.2 1020.3 0.0
28/12:00am 4.8 1.1 4.2 96 0.3 NW 13 19 7 10 1020.2 1020.3 0.0
 
Date/Time
EST
Temp
°C
App
Temp
°C
Dew
Point
°C
Rel
Hum
%
Delta-T
°C
Wind Press
QNH
hPa
Press
MSL
hPa
Rain since
9am
mm
Dir  Spd
km/h
Gust
km/h
Spd
kts
Gust
kts
27/11:30pm 4.6 0.8 4.0 96 0.3 NW 13 17 7 9 1020.2 1020.3 0.0
27/11:00pm 4.6 1.2 3.9 95 0.3 NW 11 15 6 8 1020.1 1020.2 0.0
27/10:30pm 4.8 1.4 4.2 96 0.3 NW 11 15 6 8 1020.0 1020.1 0.0

Other Formats:

Comma delimited format used in spreadsheet applications
http://www.bom.gov.au/fwo/IDV60801/IDV60801.94912.axf

JavaScript Object Notation format (JSON) in row-major order
http://www.bom.gov.au/fwo/IDV60801/IDV60801.94912.json